createdAt,value
2018-05-21T00:00:43.885Z,61.54
2018-05-21T00:03:12.049Z,61.70
2018-05-21T00:05:40.206Z,62.13
2018-05-21T00:08:08.402Z,62.57
2018-05-21T00:10:36.589Z,62.73
2018-05-21T00:13:04.733Z,62.95
2018-05-21T00:15:32.891Z,63.18
2018-05-21T00:18:01.049Z,62.91
2018-05-21T00:20:29.223Z,63.18
2018-05-21T00:22:57.371Z,63.25
2018-05-21T00:25:25.544Z,63.17
2018-05-21T00:27:53.696Z,63.29
2018-05-21T00:30:21.851Z,63.41
2018-05-21T00:32:50.002Z,63.37
2018-05-21T00:35:18.159Z,63.48
2018-05-21T00:37:46.350Z,63.75
2018-05-21T00:40:14.484Z,63.72
2018-05-21T00:42:42.648Z,63.87
2018-05-21T00:45:10.795Z,64.02
2018-05-21T00:47:38.979Z,64.21
2018-05-21T00:50:07.139Z,64.40
2018-05-21T00:52:35.280Z,64.69
2018-05-21T00:55:15.879Z,64.85
2018-05-21T00:57:44.034Z,64.95
2018-05-21T01:00:12.192Z,64.98
2018-05-21T01:02:43.597Z,64.97
2018-05-21T01:05:11.833Z,65.31
2018-05-21T01:07:42.885Z,65.42
2018-05-21T01:10:11.052Z,65.71
2018-05-21T01:12:39.190Z,65.91
2018-05-21T01:15:07.710Z,66.02
2018-05-21T01:17:35.858Z,66.21
2018-05-21T01:20:05.058Z,66.22
2018-05-21T01:22:33.216Z,66.52
2018-05-21T01:25:01.372Z,66.55
2018-05-21T01:27:29.551Z,66.70
2018-05-21T01:29:57.706Z,66.81
2018-05-21T01:32:25.878Z,66.95
2018-05-21T01:34:54.043Z,66.98
2018-05-21T01:37:22.209Z,67.16
2018-05-21T01:39:50.394Z,67.24
2018-05-21T01:42:18.561Z,67.28
2018-05-21T01:44:46.700Z,67.52
2018-05-21T01:47:17.271Z,67.45
2018-05-21T01:49:45.433Z,67.74
2018-05-21T01:52:13.592Z,67.72
2018-05-21T01:54:41.751Z,67.78
2018-05-21T01:57:09.899Z,68.47
2018-05-21T01:59:38.074Z,68.08
2018-05-21T02:02:06.217Z,68.29
2018-05-21T02:04:34.378Z,68.61
2018-05-21T02:07:02.547Z,69.16
2018-05-21T02:09:30.694Z,68.93
2018-05-21T02:11:58.854Z,69.37
2018-05-21T02:14:27.020Z,69.60
2018-05-21T02:16:55.162Z,69.09
2018-05-21T02:19:24.381Z,69.10
2018-05-21T02:21:52.545Z,68.89
2018-05-21T02:24:20.722Z,69.31
2018-05-21T02:26:48.888Z,69.06
2018-05-21T02:29:17.040Z,69.63
2018-05-21T02:31:52.097Z,69.86
2018-05-21T02:34:20.262Z,70.23
2018-05-21T02:36:48.420Z,70.82
2018-05-21T02:39:16.574Z,71.19
2018-05-21T02:41:44.792Z,71.63
2018-05-21T02:44:16.289Z,71.84
2018-05-21T02:46:44.459Z,72.25
2018-05-21T02:51:53.679Z,72.55
2018-05-21T02:54:24.800Z,72.47
2018-05-21T02:56:52.939Z,73.04
2018-05-21T02:59:27.627Z,73.05
2018-05-21T03:01:55.793Z,73.13
2018-05-21T03:04:23.967Z,72.97
2018-05-21T03:06:52.133Z,73.22
2018-05-21T03:09:20.325Z,73.47
2018-05-21T03:11:48.473Z,73.50
2018-05-21T03:14:26.953Z,73.63
2018-05-21T03:16:55.113Z,73.52
2018-05-21T03:19:23.253Z,74.14
2018-05-21T03:21:51.413Z,73.99
2018-05-21T03:24:19.564Z,74.18
2018-05-21T03:26:47.751Z,74.48
2018-05-21T03:29:15.891Z,74.25
2018-05-21T03:31:44.056Z,74.51
2018-05-21T03:34:12.205Z,74.21
2018-05-21T03:36:40.742Z,74.47
2018-05-21T03:39:08.889Z,74.48
2018-05-21T03:41:37.037Z,74.59
2018-05-21T03:44:05.206Z,74.65
2018-05-21T03:46:33.372Z,74.65
2018-05-21T03:49:01.545Z,74.88
2018-05-21T03:51:29.703Z,74.93
2018-05-21T03:53:57.855Z,75.31
2018-05-21T03:56:29.389Z,75.22
2018-05-21T03:59:10.215Z,75.44
2018-05-21T04:01:50.206Z,75.52
2018-05-21T04:04:18.392Z,75.64
2018-05-21T04:06:46.539Z,75.85
2018-05-21T04:09:18.552Z,76.12
2018-05-21T04:11:46.748Z,76.09
2018-05-21T04:14:21.426Z,76.11
2018-05-21T04:16:49.558Z,76.04
2018-05-21T04:19:17.712Z,76.03
2018-05-21T04:21:49.365Z,75.85
2018-05-21T04:24:24.080Z,75.82
2018-05-21T04:26:52.245Z,75.59
2018-05-21T04:29:20.398Z,75.42
2018-05-21T04:31:48.554Z,75.40
2018-05-21T04:34:16.724Z,75.26
2018-05-21T04:36:44.876Z,75.39
2018-05-21T04:39:25.486Z,75.48
2018-05-21T04:41:53.648Z,75.07
2018-05-21T04:44:29.534Z,75.03
2018-05-21T04:46:57.698Z,74.65
2018-05-21T04:49:25.864Z,74.77
2018-05-21T04:51:54.034Z,74.54
2018-05-21T04:54:23.834Z,74.44
2018-05-21T04:56:51.997Z,74.50
2018-05-21T04:59:20.161Z,74.47
2018-05-21T05:01:48.336Z,74.17
2018-05-21T05:04:16.501Z,73.99
2018-05-21T05:06:50.594Z,73.90
2018-05-21T05:09:18.771Z,74.05
2018-05-21T05:11:46.936Z,73.76
2018-05-21T05:14:15.078Z,73.68
2018-05-21T05:16:43.242Z,73.29
2018-05-21T05:19:11.412Z,73.50
2018-05-21T05:21:39.602Z,73.87
2018-05-21T05:24:07.752Z,73.49
2018-05-21T05:26:35.932Z,72.58
2018-05-21T05:29:04.078Z,72.07
2018-05-21T05:31:32.259Z,71.49
2018-05-21T05:34:00.417Z,71.25
2018-05-21T05:36:28.580Z,71.12
2018-05-21T05:38:56.728Z,71.17
2018-05-21T05:41:28.708Z,70.63
2018-05-21T05:43:56.859Z,70.74
2018-05-21T05:46:25.016Z,70.82
2018-05-21T05:48:53.192Z,69.86
2018-05-21T05:51:25.181Z,69.84
2018-05-21T05:53:53.334Z,69.89
2018-05-21T05:56:21.489Z,69.76
2018-05-21T05:58:49.658Z,69.97
2018-05-21T06:01:17.805Z,70.03
2018-05-21T06:03:45.997Z,69.46
2018-05-21T06:06:14.152Z,69.33
2018-05-21T06:08:44.750Z,69.32
2018-05-21T06:11:12.912Z,68.98
2018-05-21T06:13:41.166Z,68.10
2018-05-21T06:16:15.213Z,68.60
2018-05-21T06:18:43.390Z,68.36
2018-05-21T06:21:11.556Z,68.93
2018-05-21T06:23:39.698Z,67.84
2018-05-21T06:26:07.860Z,67.84
2018-05-21T06:28:36.008Z,67.40
2018-05-21T06:31:04.189Z,67.51
2018-05-21T06:33:32.331Z,66.98
2018-05-21T06:36:00.488Z,66.82
2018-05-21T06:38:28.644Z,66.71
2018-05-21T06:40:56.843Z,66.64
2018-05-21T06:43:25.608Z,66.95
2018-05-21T06:45:53.791Z,67.07
2018-05-21T06:48:23.225Z,66.30
2018-05-21T06:50:51.364Z,65.50
2018-05-21T06:53:25.936Z,65.17
2018-05-21T06:55:54.091Z,65.01
2018-05-21T06:58:22.244Z,65.77
2018-05-21T07:00:50.386Z,65.16
2018-05-21T07:03:18.554Z,64.74
2018-05-21T07:05:46.738Z,65.33
2018-05-21T07:08:14.861Z,64.38
2018-05-21T07:10:43.015Z,64.09
2018-05-21T07:13:11.181Z,63.81
2018-05-21T07:15:45.045Z,63.97
2018-05-21T07:18:14.356Z,63.14
2018-05-21T07:20:42.479Z,62.57
2018-05-21T07:23:24.167Z,63.08
2018-05-21T07:25:52.308Z,63.34
2018-05-21T07:28:20.442Z,62.81
2018-05-21T07:30:48.617Z,62.58
2018-05-21T07:33:24.100Z,62.61
2018-05-21T07:35:52.278Z,61.94
2018-05-21T07:38:23.012Z,62.58
2018-05-21T07:40:51.179Z,62.04
2018-05-21T07:43:19.348Z,62.59
2018-05-21T07:45:47.508Z,61.29
2018-05-21T07:48:15.651Z,61.04
2018-05-21T07:50:43.886Z,60.70
2018-05-21T07:53:12.327Z,61.49
2018-05-21T07:55:40.475Z,60.73
2018-05-21T07:58:08.701Z,59.97
2018-05-21T08:00:36.807Z,59.84
2018-05-21T08:03:05.553Z,59.58
2018-05-21T08:05:33.733Z,59.70
2018-05-21T08:08:01.899Z,58.96
2018-05-21T08:10:33.270Z,59.14
2018-05-21T08:13:01.434Z,59.34
2018-05-21T08:15:35.417Z,59.25
2018-05-21T08:18:03.648Z,58.75
2018-05-21T08:20:31.801Z,58.58
2018-05-21T08:22:59.969Z,59.11
2018-05-21T08:25:28.115Z,59.19
2018-05-21T08:27:56.280Z,58.66
2018-05-21T08:30:24.423Z,58.26
2018-05-21T08:32:52.579Z,58.64
2018-05-21T08:35:20.735Z,58.45
2018-05-21T08:37:48.885Z,57.69
2018-05-21T08:40:17.051Z,57.15
2018-05-21T08:42:45.236Z,57.67
2018-05-21T08:45:13.363Z,57.65
2018-05-21T08:47:41.549Z,56.84
2018-05-21T08:50:09.684Z,56.49
2018-05-21T08:52:37.838Z,56.32
2018-05-21T08:55:06.724Z,56.37
2018-05-21T08:57:34.885Z,56.26
2018-05-21T09:00:03.029Z,55.71
2018-05-21T09:02:31.197Z,55.73
2018-05-21T09:04:59.363Z,55.66
2018-05-21T09:07:27.532Z,55.53
2018-05-21T09:09:55.672Z,56.36
2018-05-21T09:12:24.547Z,55.92
2018-05-21T09:14:52.710Z,55.12
2018-05-21T09:17:20.851Z,55.14
2018-05-21T09:19:49.027Z,55.16
2018-05-21T09:22:17.209Z,53.02
2018-05-21T09:24:45.373Z,52.82
2018-05-21T09:27:13.504Z,53.20
2018-05-21T09:29:41.682Z,53.26
2018-05-21T09:32:09.831Z,53.37
2018-05-21T09:34:38.001Z,53.33
2018-05-21T09:37:06.155Z,53.10
2018-05-21T09:39:34.330Z,53.99
2018-05-21T09:42:02.490Z,51.99
2018-05-21T09:44:36.696Z,53.11
2018-05-21T09:47:04.845Z,51.68
2018-05-21T09:49:32.969Z,51.96
2018-05-21T09:52:01.141Z,52.23
2018-05-21T09:54:35.874Z,50.99
2018-05-21T09:57:04.027Z,51.68
2018-05-21T09:59:32.205Z,53.11
2018-05-21T10:02:00.358Z,52.49
2018-05-21T10:04:28.502Z,53.70
2018-05-21T10:06:56.670Z,52.51
2018-05-21T10:09:24.805Z,50.73
2018-05-21T10:11:52.968Z,52.30
2018-05-21T10:14:21.125Z,52.72
2018-05-21T10:16:50.208Z,50.64
2018-05-21T10:19:18.428Z,51.59
2018-05-21T10:21:46.542Z,50.71
2018-05-21T10:24:14.697Z,50.72
2018-05-21T10:26:42.856Z,50.25
2018-05-21T10:29:11.019Z,50.68
2018-05-21T10:31:39.650Z,50.77
2018-05-21T10:34:07.803Z,49.31
2018-05-21T10:36:35.966Z,49.84
2018-05-21T10:39:04.137Z,49.95
2018-05-21T10:41:32.295Z,50.10
2018-05-21T10:44:00.444Z,48.51
2018-05-21T10:46:28.626Z,49.24
2018-05-21T10:48:56.852Z,48.31
2018-05-21T10:51:25.113Z,47.97
2018-05-21T10:53:53.198Z,47.77
2018-05-21T10:56:21.402Z,46.93
2018-05-21T10:58:49.491Z,48.11
2018-05-21T11:01:17.648Z,47.00
2018-05-21T11:03:45.796Z,47.66
2018-05-21T11:06:14.648Z,48.65
2018-05-21T11:08:42.782Z,47.92
2018-05-21T11:11:10.942Z,47.78
2018-05-21T11:13:39.115Z,47.31
2018-05-21T11:16:07.261Z,46.22
2018-05-21T11:18:35.423Z,46.50
2018-05-21T11:21:13.698Z,45.72
2018-05-21T11:23:41.864Z,46.86
2018-05-21T11:26:10.961Z,44.73
2018-05-21T11:28:42.196Z,45.63
2018-05-21T11:31:10.853Z,44.78
2018-05-21T11:33:39.025Z,44.95
2018-05-21T11:36:07.176Z,45.04
2018-05-21T11:38:35.323Z,45.76
2018-05-21T11:41:03.494Z,46.21
2018-05-21T11:43:31.655Z,43.91
2018-05-21T11:45:59.851Z,46.00
2018-05-21T11:48:31.150Z,45.43
2018-05-21T11:50:59.301Z,44.99
2018-05-21T11:53:27.630Z,44.62
2018-05-21T11:55:55.802Z,44.94
2018-05-21T11:58:23.932Z,46.84
2018-05-21T12:00:52.110Z,43.52
2018-05-21T12:03:20.260Z,43.75
2018-05-21T12:05:48.414Z,42.36
2018-05-21T12:08:16.582Z,42.75
2018-05-21T12:10:44.726Z,43.15
2018-05-21T12:13:12.910Z,43.11
2018-05-21T12:15:42.410Z,44.23
2018-05-21T12:18:10.599Z,43.32
2018-05-21T12:20:38.753Z,45.45
2018-05-21T12:23:06.903Z,43.89
2018-05-21T12:25:35.110Z,41.26
2018-05-21T12:28:06.228Z,42.25
2018-05-21T12:30:34.366Z,41.26
2018-05-21T12:33:02.538Z,41.97
2018-05-21T12:35:30.699Z,42.22
2018-05-21T12:37:58.841Z,41.73
2018-05-21T12:40:27.013Z,39.83
2018-05-21T12:42:55.166Z,40.54
2018-05-21T12:45:23.328Z,42.70
2018-05-21T12:47:51.478Z,42.30
2018-05-21T12:50:19.641Z,42.12
2018-05-21T12:52:47.780Z,40.86
2018-05-21T12:55:24.450Z,40.44
2018-05-21T12:57:52.598Z,40.41
2018-05-21T13:00:20.766Z,39.70
2018-05-21T13:02:48.932Z,40.35
2018-05-21T13:05:20.588Z,40.98
2018-05-21T13:07:48.746Z,41.17
2018-05-21T13:10:16.923Z,41.22
2018-05-21T13:12:45.092Z,43.37
2018-05-21T13:15:14.184Z,40.60
2018-05-21T13:17:42.266Z,39.86
2018-05-21T13:20:15.040Z,40.63
2018-05-21T13:22:43.205Z,38.23
2018-05-21T13:25:15.244Z,37.56
2018-05-21T13:27:43.409Z,37.11
2018-05-21T13:30:11.560Z,39.50
2018-05-21T13:32:39.729Z,39.52
2018-05-21T13:35:14.267Z,39.44
2018-05-21T13:37:42.464Z,39.58
2018-05-21T13:40:12.168Z,37.67
2018-05-21T13:42:43.561Z,38.46
2018-05-21T13:45:14.754Z,37.16
2018-05-21T13:47:42.982Z,38.44
2018-05-21T13:50:11.396Z,39.30
2018-05-21T13:52:46.043Z,40.25
2018-05-21T13:55:15.109Z,38.16
2018-05-21T13:57:43.273Z,37.69
2018-05-21T14:00:11.415Z,37.54
2018-05-21T14:02:39.571Z,36.67
2018-05-21T14:05:08.055Z,36.24
2018-05-21T14:07:36.211Z,37.28
2018-05-21T14:10:04.389Z,34.96
2018-05-21T14:12:32.617Z,35.64
2018-05-21T14:15:00.697Z,35.12
2018-05-21T14:17:28.852Z,32.67
2018-05-21T14:19:57.027Z,33.03
2018-05-21T14:22:25.177Z,31.76
2018-05-21T14:24:53.315Z,32.75
2018-05-21T14:27:23.236Z,34.48
2018-05-21T14:29:51.498Z,32.51
2018-05-21T14:32:19.588Z,32.82
2018-05-21T14:34:47.764Z,31.47
2018-05-21T14:37:17.242Z,33.88
2018-05-21T14:39:46.319Z,30.92
2018-05-21T14:42:14.482Z,30.64
2018-05-21T14:44:42.620Z,29.29
2018-05-21T14:47:11.623Z,30.52
2018-05-21T14:49:39.785Z,30.41
2018-05-21T14:52:07.923Z,32.25
2018-05-21T14:54:36.085Z,32.13
2018-05-21T14:57:04.240Z,29.30
2018-05-21T14:59:32.403Z,30.47
2018-05-21T15:02:00.559Z,31.87
2018-05-21T15:04:28.714Z,31.98
2018-05-21T15:06:56.863Z,30.11
2018-05-21T15:09:25.023Z,29.92
2018-05-21T15:11:53.174Z,29.55
2018-05-21T15:14:21.915Z,28.54
2018-05-21T15:16:50.118Z,29.02
2018-05-21T15:19:18.432Z,27.87
2018-05-21T15:21:47.827Z,27.87
2018-05-21T15:24:16.000Z,27.94
2018-05-21T15:26:44.182Z,28.87
2018-05-21T15:29:12.314Z,29.05
2018-05-21T15:31:40.881Z,29.09
2018-05-21T15:34:09.052Z,29.40
2018-05-21T15:36:37.226Z,30.56
2018-05-21T15:39:05.403Z,28.06
2018-05-21T15:41:33.565Z,30.08
2018-05-21T15:44:01.775Z,29.44
2018-05-21T15:46:29.971Z,29.85
2018-05-21T15:48:58.157Z,29.42
2018-05-21T15:51:26.297Z,29.84
2018-05-21T15:53:54.465Z,31.39
2018-05-21T15:56:22.597Z,32.12
2018-05-21T15:58:50.747Z,32.96
2018-05-21T16:01:19.421Z,33.15
2018-05-21T16:03:47.604Z,33.65
2018-05-21T16:06:15.772Z,33.44
2018-05-21T16:08:43.929Z,33.48
2018-05-21T16:11:12.870Z,32.92
2018-05-21T16:13:41.024Z,32.62
2018-05-21T16:16:09.192Z,32.54
2018-05-21T16:18:37.347Z,33.08
2018-05-21T16:21:05.510Z,33.46
2018-05-21T16:23:33.874Z,33.88
2018-05-21T16:26:02.061Z,34.24
2018-05-21T16:28:30.214Z,34.94
2018-05-21T16:30:58.392Z,34.85
2018-05-21T16:33:26.547Z,35.27
2018-05-21T16:35:54.710Z,35.38
2018-05-21T16:38:26.401Z,35.12
2018-05-21T16:40:54.574Z,35.94
2018-05-21T16:43:22.737Z,36.24
2018-05-21T16:45:50.878Z,36.91
2018-05-21T16:48:19.036Z,37.54
2018-05-21T16:50:47.194Z,38.52
2018-05-21T16:53:15.357Z,38.55
2018-05-21T16:55:45.362Z,38.55
2018-05-21T16:58:13.564Z,39.22
2018-05-21T17:00:41.716Z,40.18
2018-05-21T17:03:09.896Z,39.98
2018-05-21T17:05:38.033Z,39.31
2018-05-21T17:08:06.181Z,40.13
2018-05-21T17:10:34.341Z,40.66
2018-05-21T17:13:02.500Z,41.29
2018-05-21T17:15:30.673Z,42.52
2018-05-21T17:17:58.854Z,43.21
2018-05-21T17:20:27.052Z,45.31
2018-05-21T17:22:55.747Z,46.73
2018-05-21T17:25:23.923Z,48.67
2018-05-21T17:27:52.084Z,48.85
2018-05-21T17:30:20.264Z,49.68
2018-05-21T17:32:48.443Z,50.35
2018-05-21T17:35:16.629Z,51.95
2018-05-21T17:37:44.779Z,53.07
2018-05-21T17:40:16.723Z,54.83
2018-05-21T17:42:44.895Z,55.39
2018-05-21T17:45:13.065Z,57.51
2018-05-21T17:47:41.291Z,59.83
2018-05-21T17:50:09.668Z,60.19
2018-05-21T17:52:37.831Z,62.41
2018-05-21T17:55:06.017Z,63.43
2018-05-21T17:57:34.179Z,63.77
2018-05-21T18:00:04.749Z,65.08
2018-05-21T18:02:32.892Z,65.32
2018-05-21T18:05:01.069Z,65.83
2018-05-21T18:07:29.231Z,66.10
2018-05-21T18:09:57.396Z,64.36
2018-05-21T18:12:26.192Z,63.90
2018-05-21T18:14:54.401Z,64.59
2018-05-21T18:17:22.545Z,65.71
2018-05-21T18:19:50.709Z,65.33
2018-05-21T18:22:25.760Z,65.40
2018-05-21T18:24:53.914Z,64.90
2018-05-21T18:27:22.113Z,64.70
2018-05-21T18:29:50.265Z,64.00
2018-05-21T18:32:25.172Z,63.39
2018-05-21T18:34:53.332Z,62.19
2018-05-21T18:37:21.493Z,61.44
2018-05-21T18:39:49.650Z,60.25
2018-05-21T18:42:17.831Z,58.42
2018-05-21T18:44:45.956Z,59.90
2018-05-21T18:47:14.864Z,56.84
2018-05-21T18:49:43.047Z,55.25
2018-05-21T18:52:11.217Z,56.63
2018-05-21T18:54:39.389Z,56.55
2018-05-21T18:57:11.133Z,56.38
2018-05-21T18:59:39.350Z,56.63
2018-05-21T19:02:07.528Z,57.14
2018-05-21T19:04:35.682Z,56.84
2018-05-21T19:07:03.839Z,56.96
2018-05-21T19:09:32.032Z,57.20
2018-05-21T19:12:00.206Z,57.36
2018-05-21T19:14:28.397Z,57.72
2018-05-21T19:16:56.748Z,58.00
2018-05-21T19:19:25.820Z,58.32
2018-05-21T19:21:53.997Z,58.94
2018-05-21T19:24:22.216Z,59.16
2018-05-21T19:26:51.131Z,59.63
2018-05-21T19:29:19.298Z,60.37
2018-05-21T19:31:47.478Z,61.00
2018-05-21T19:34:15.634Z,61.46
2018-05-21T19:36:45.017Z,62.27
2018-05-21T19:39:13.213Z,62.83
2018-05-21T19:41:41.365Z,63.13
2018-05-21T19:44:15.277Z,63.54
2018-05-21T19:46:46.976Z,64.43
2018-05-21T19:49:15.145Z,65.27
2018-05-21T19:51:43.302Z,65.17
2018-05-21T19:54:17.604Z,65.48
2018-05-21T19:56:45.749Z,65.35
2018-05-21T19:59:14.736Z,65.77
2018-05-21T20:01:42.915Z,66.22
2018-05-21T20:04:11.083Z,66.71
2018-05-21T20:06:46.156Z,67.19
2018-05-21T20:09:14.329Z,67.42
2018-05-21T20:11:42.491Z,67.51
2018-05-21T20:14:10.629Z,68.10
2018-05-21T20:16:38.826Z,68.08
2018-05-21T20:19:06.994Z,68.01
2018-05-21T20:21:35.150Z,67.88
2018-05-21T20:24:03.304Z,67.68
2018-05-21T20:26:31.472Z,67.70
2018-05-21T20:28:59.637Z,67.87
2018-05-21T20:31:37.457Z,68.13
2018-05-21T20:34:05.613Z,67.99
2018-05-21T20:36:37.393Z,69.35
2018-05-21T20:39:06.349Z,69.00
2018-05-21T20:41:35.685Z,68.78
2018-05-21T20:44:03.854Z,68.99
2018-05-21T20:46:32.001Z,69.08
2018-05-21T20:49:00.163Z,69.21
2018-05-21T20:51:28.344Z,69.44
2018-05-21T20:53:57.468Z,70.25
2018-05-21T20:56:25.656Z,70.24
2018-05-21T20:58:53.819Z,70.12
2018-05-21T21:01:22.060Z,70.26
2018-05-21T21:03:50.175Z,69.57
2018-05-21T21:06:18.333Z,70.28
2018-05-21T21:08:46.517Z,69.70
2018-05-21T21:11:14.665Z,69.78
2018-05-21T21:13:42.822Z,70.26
2018-05-21T21:16:16.980Z,70.28
2018-05-21T21:18:45.172Z,69.80
2018-05-21T21:21:13.311Z,69.17
2018-05-21T21:23:41.467Z,68.89
2018-05-21T21:26:09.614Z,69.38
2018-05-21T21:28:38.047Z,70.18
2018-05-21T21:31:06.986Z,69.97
2018-05-21T21:33:35.130Z,70.64
2018-05-21T21:36:03.313Z,70.97
2018-05-21T21:38:31.462Z,71.55
2018-05-21T21:40:59.644Z,71.36
2018-05-21T21:43:27.781Z,71.89
2018-05-21T21:45:55.948Z,71.70
2018-05-21T21:48:24.108Z,71.76
2018-05-21T21:50:52.537Z,69.66
2018-05-21T21:53:20.688Z,68.73
2018-05-21T21:55:48.827Z,68.32
2018-05-21T21:58:16.981Z,68.15
2018-05-21T22:00:45.131Z,67.73
2018-05-21T22:03:13.342Z,67.88
2018-05-21T22:05:43.882Z,67.41
2018-05-21T22:08:12.082Z,67.06
2018-05-21T22:10:40.226Z,67.06
2018-05-21T22:13:08.395Z,67.23
2018-05-21T22:15:37.488Z,67.37
2018-05-21T22:18:05.657Z,67.68
2018-05-21T22:20:33.826Z,67.63
2018-05-21T22:23:01.986Z,67.54
2018-05-21T22:25:30.155Z,67.61
2018-05-21T22:27:58.320Z,67.42
2018-05-21T22:30:26.463Z,67.36
2018-05-21T22:32:54.626Z,67.25
2018-05-21T22:35:22.779Z,67.25
2018-05-21T22:37:50.933Z,67.37
2018-05-21T22:40:19.091Z,67.37
2018-05-21T22:42:47.622Z,67.51
2018-05-21T22:45:16.626Z,67.82
2018-05-21T22:47:44.875Z,67.74
2018-05-21T22:50:13.003Z,67.64
2018-05-21T22:52:41.169Z,67.74
2018-05-21T22:55:09.571Z,67.71
2018-05-21T22:57:37.709Z,67.72
2018-05-21T23:00:05.878Z,67.50
2018-05-21T23:02:34.052Z,67.41
2018-05-21T23:05:08.807Z,67.92
2018-05-21T23:07:36.976Z,67.70
2018-05-21T23:10:05.113Z,68.16
2018-05-21T23:12:33.281Z,68.06
2018-05-21T23:15:01.440Z,67.58
2018-05-21T23:17:29.598Z,67.52
2018-05-21T23:19:57.739Z,67.93
2018-05-21T23:22:37.665Z,68.60
2018-05-21T23:25:05.820Z,68.53
2018-05-21T23:27:42.477Z,68.72
2018-05-21T23:30:10.643Z,68.92
2018-05-21T23:32:38.793Z,69.14
2018-05-21T23:35:06.957Z,69.32
2018-05-21T23:37:35.144Z,69.53
2018-05-21T23:40:03.290Z,69.63
2018-05-21T23:42:31.463Z,69.55
2018-05-21T23:44:59.956Z,69.53
2018-05-21T23:47:28.117Z,69.57
2018-05-21T23:49:56.251Z,69.59
2018-05-21T23:52:24.399Z,69.80
2018-05-21T23:54:52.568Z,70.00
2018-05-21T23:57:20.738Z,69.86
2018-05-21T23:59:48.879Z,69.73
